Flight Track Log - Related Links

Times and Time Zones

All times are in EDT time to prevent confusion due to time zone crossing. See the JBU33 flight status page for this flight to view local times or setup timezone preferences in your user account.

Time Position Orientation Groundspeed Altitude Reporting Facility
EDT Latitude Longitude Course Direction KTS MPH feet Rate Location/Type
Fri 01:23:54 PM 44.4114 -73.1258 193° South 206 237 2,800  Level Boston Center
Fri 01:24:55 PM 44.3572 -73.1456 195° South 233 268 5,300 2,847 Climbing Boston Center
Fri 01:25:00 PM 44.2318 -73.2296 190° South  Level FlightAware Approximate
Fri 01:25:52 PM 44.2819 -73.1767 196° South 269 310 8,400  Level Boston Center
Fri 01:26:00 PM 44.1567 -73.2663 195° South  Level FlightAware Approximate
Fri 01:26:53 PM 44.2044 -73.2103 197° South 292 336 11,300  Level Boston Center
Fri 01:27:00 PM 44.0787 -73.2955 195° South  Level FlightAware Approximate
Fri 01:27:53 PM 44.1189 -73.2469 197° South 316 364 13,300  Level Boston Center
Fri 01:28:00 PM 44.0003 -73.3222 194° South  Level FlightAware Approximate
Fri 01:28:53 PM 44.0269 -73.2861 197° South 333 383 15,000  Level Boston Center
Fri 01:29:00 PM 43.9217 -73.3483 193° South  Level FlightAware Approximate
Fri 01:30:06 PM 43.9369 -73.3222 196° South 333 383 15,000  Level Boston Center
Fri 01:31:04 PM 43.8219 -73.3694 197° South 339 390 16,600 1,866 Climbing Boston Center
Fri 01:32:05 PM 43.7281 -73.4111 198° South 347 399 18,700 1,820 Climbing Boston Center
Fri 01:33:06 PM 43.6400 -73.4469 196° South 354 407 20,300 1,489 Climbing Boston Center
Fri 01:34:18 PM 43.5419 -73.4856 196° South 365 420 22,000 1,318 Climbing Boston Center
Fri 01:35:18 PM 43.4183 -73.5347 196° South 376 433 23,200 1,068 Climbing Boston Center
Fri 01:36:16 PM 43.3181 -73.5786 198° South 381 438 24,100 908 Climbing Boston Center
Fri 01:37:17 PM 43.2133 -73.6222 197° South 386 444 25,000 744 Climbing Boston Center
Fri 01:38:17 PM 43.1067 -73.6600 194° South 386 444 25,600 541 Climbing Boston Center
Fri 01:39:19 PM 43.0019 -73.7033 197° South 392 451 26,100 504 Climbing Boston Center
Fri 01:40:16 PM 42.9142 -73.7356 195° South 399 459 26,600 966 Climbing Boston Center
Fri 01:41:17 PM 42.7883 -73.7897 198° South 404 465 28,000 689 Climbing Boston Center
Fri 01:42:18 PM 42.6694 -73.8067 186° South 409 471 28,000  Level Boston Center
Fri 01:43:18 PM 42.5442 -73.8153 183° South 415 478 28,000  Level Boston Center
Fri 01:44:18 PM 42.4256 -73.8156 180° South 421 484 28,000  Level Boston Center
Fri 01:45:16 PM 42.3086 -73.8158 180° South 421 484 28,000  Level Boston Center
Fri 01:46:17 PM 42.2003 -73.8161 180° South 427 491 28,000 -246 Level Boston Center
Fri 01:47:18 PM 42.0836 -73.8192 181° South 427 491 27,500 -934 Descending Boston Center
Fri 01:48:19 PM 41.9669 -73.8222 181° South 422 486 26,100 -2,010 Descending Boston Center
Fri 01:50:44 PM 41.6947 -73.8242 180° South 400 460 20,600 -1,803 Descending New York Center
Fri 01:51:42 PM 41.6017 -73.8781 203° Southwest 368 423 20,000 -300 Descending New York Center
Fri 01:52:44 PM 41.5122 -73.9544 213° Southwest 357 411 20,000  Level New York Center
Fri 01:53:44 PM 41.4292 -74.0278 214° Southwest 362 417 20,000  Level New York Center
Fri 01:54:42 PM 41.3342 -74.0728 200° South 368 423 20,000  Level New York Center
Fri 01:55:43 PM 41.2253 -74.0897 187° South 373 429 20,000  Level New York Center
Fri 01:56:43 PM 41.1208 -74.1064 187° South 379 436 20,000 -347 Level New York Center
Fri 01:57:44 PM 41.0183 -74.1208 186° South 379 436 19,300 -496 Descending New York Center
Fri 01:58:44 PM 40.9289 -74.1164 178° South 367 422 19,000 -821 Descending New York Center
Fri 01:59:41 PM 40.8344 -74.0622 157° South 345 397 17,700 -1,513 Descending New York Center
Fri 02:00:43 PM 40.7461 -74.0225 161° South 338 389 16,000 -1,574 Descending New York Center
Fri 02:01:43 PM 40.6617 -73.9800 159° South 338 389 14,500 -1,477 Descending New York Center
Fri 02:02:53 PM 40.5667 -73.9333 160° South 321 369 12,800 -1,662 Descending New York TRACON
Fri 02:03:53 PM 40.4833 -73.9000 163° South 311 358 10,900 -1,600 Descending New York TRACON
Fri 02:04:53 PM 40.4000 -73.8500 155° Southeast 297 342 9,600 -1,450 Descending New York TRACON
Fri 02:05:53 PM 40.3333 -73.8167 159° South 292 336 8,000 -897 Descending New York TRACON
Fri 02:07:47 PM 40.3167 -73.6333 97° East 318 366 7,000 -345 Descending New York TRACON
Fri 02:08:47 PM 40.4000 -73.5833 25° Northeast 299 344 7,000  Level New York TRACON
Fri 02:09:47 PM 40.4667 -73.5500 21° North 299 344 7,000 -50 Level New York TRACON
Fri 02:10:47 PM 40.5333 -73.5000 30° Northeast 275 316 6,900 -550 Descending New York TRACON
Fri 02:11:47 PM 40.6000 -73.4500 30° Northeast 256 295 5,900 -950 Descending New York TRACON
Fri 02:12:47 PM 40.6667 -73.4000 30° Northeast 256 295 5,000 -700 Descending New York TRACON
Fri 02:13:47 PM 40.7167 -73.3833 14° North 243 280 4,500 -800 Descending New York TRACON
Fri 02:14:47 PM 40.7833 -73.4167 339° North 221 254 3,400 -750 Descending New York TRACON
Fri 02:15:47 PM 40.8333 -73.4500 333° Northwest 220 253 3,000 -250 Descending New York TRACON
Fri 02:16:47 PM 40.8667 -73.5000 311° West 204 235 2,900 -500 Descending New York TRACON
Fri 02:17:47 PM 40.8667 -73.5500 270° West 160 184 2,000 -450 Descending New York TRACON
Fri 02:18:47 PM 40.8500 -73.6000 246° West 140 161 2,000  Level New York TRACON
Fri 02:19:47 PM 40.8167 -73.6333 217° Southwest 139 160 2,000  Level New York TRACON
Fri 02:20:47 PM 40.7833 -73.6500 201° Southwest 139 160 2,000  Level New York TRACON
Fri 02:21:47 PM 40.7500 -73.6833 217° Southwest 139 160 2,000 -300 Level New York TRACON
Fri 02:22:47 PM 40.7167 -73.7000 201° Southwest 137 158 1,400 -619 Descending New York TRACON
Fri 02:23:53 PM 40.6667 -73.7333 207° Southwest 132 152 700 -636 Descending New York TRACON

Login

Don't have an account? Register now (free) for customized features, flight alerts, and more!